createdAt,value
2022-12-17T00:02:14.363Z,6.57
2022-12-17T00:04:59.750Z,6.70
2022-12-17T00:07:45.044Z,6.97
2022-12-17T00:10:30.666Z,6.67
2022-12-17T00:13:16.379Z,6.90
2022-12-17T00:16:02.025Z,6.70
2022-12-17T00:18:47.688Z,7.03
2022-12-17T00:21:36.442Z,6.57
2022-12-17T00:24:22.014Z,7.27
2022-12-17T00:27:07.462Z,7.43
2022-12-17T00:29:52.986Z,7.00
2022-12-17T00:32:38.517Z,6.90
2022-12-17T00:35:24.320Z,6.63
2022-12-17T00:38:09.571Z,7.10
2022-12-17T00:40:57.993Z,6.43
2022-12-17T00:43:44.062Z,7.27
2022-12-17T00:46:29.306Z,7.13
2022-12-17T00:49:14.776Z,7.22
2022-12-17T00:52:00.187Z,6.07
2022-12-17T00:54:48.702Z,6.27
2022-12-17T00:57:34.249Z,6.33
2022-12-17T01:00:19.547Z,6.70
2022-12-17T01:03:05.286Z,7.35
2022-12-17T01:05:51.096Z,7.65
2022-12-17T01:08:36.477Z,7.83
2022-12-17T01:11:25.027Z,8.05
2022-12-17T01:14:11.863Z,8.38
2022-12-17T01:16:57.607Z,7.78
2022-12-17T01:19:43.221Z,7.85
2022-12-17T01:22:30.017Z,6.90
2022-12-17T01:25:25.886Z,8.23
2022-12-17T01:28:11.544Z,8.13
2022-12-17T01:30:57.441Z,8.13
2022-12-17T01:33:43.131Z,9.73
2022-12-17T01:36:28.449Z,9.80
2022-12-17T01:39:14.821Z,9.32
2022-12-17T01:42:00.808Z,12.18
2022-12-17T01:44:58.354Z,11.07
2022-12-17T01:47:46.344Z,10.80
2022-12-17T01:50:33.440Z,11.68
2022-12-17T01:53:22.813Z,11.40
2022-12-17T01:56:08.281Z,13.30
2022-12-17T01:58:54.770Z,12.50
2022-12-17T02:01:41.071Z,12.90
2022-12-17T02:04:27.738Z,12.27
2022-12-17T02:07:38.129Z,12.17
2022-12-17T02:10:35.022Z,11.57
2022-12-17T02:13:31.582Z,11.50
2022-12-17T02:16:33.095Z,11.30
2022-12-17T02:19:31.038Z,10.77
2022-12-17T02:22:19.979Z,11.70
2022-12-17T02:25:27.881Z,10.07
2022-12-17T02:28:13.610Z,11.32
2022-12-17T02:30:59.565Z,11.47
2022-12-17T02:33:46.291Z,11.27
2022-12-17T02:36:32.762Z,10.97
2022-12-17T02:39:17.969Z,10.47
2022-12-17T02:42:10.509Z,9.40
2022-12-17T02:44:57.181Z,10.98
2022-12-17T02:47:43.950Z,9.50
2022-12-17T02:50:30.424Z,9.43
2022-12-17T02:53:18.946Z,10.45
2022-12-17T02:56:04.499Z,9.38
2022-12-17T02:58:54.197Z,10.55
2022-12-17T03:01:39.872Z,10.48
2022-12-17T03:04:25.711Z,11.02
2022-12-17T03:07:11.169Z,9.27
2022-12-17T03:09:56.887Z,9.20
2022-12-17T03:12:43.311Z,9.40
2022-12-17T03:15:28.889Z,9.95
2022-12-17T03:18:14.310Z,10.02
2022-12-17T03:20:59.908Z,9.52
2022-12-17T03:23:45.558Z,10.68
2022-12-17T03:26:30.927Z,10.57
2022-12-17T03:29:16.321Z,9.23
2022-12-17T03:32:02.237Z,8.83
2022-12-17T03:34:47.752Z,9.40
2022-12-17T03:37:33.175Z,9.60
2022-12-17T03:40:18.624Z,10.07
2022-12-17T03:43:04.300Z,9.97
2022-12-17T03:45:49.932Z,9.80
2022-12-17T03:48:35.671Z,10.33
2022-12-17T03:51:21.072Z,9.97
2022-12-17T03:54:06.998Z,11.30
2022-12-17T03:56:52.521Z,11.10
2022-12-17T03:59:37.976Z,10.20
2022-12-17T04:02:24.087Z,11.13
2022-12-17T04:05:26.293Z,10.60
2022-12-17T04:08:12.005Z,9.95
2022-12-17T04:10:57.850Z,11.27
2022-12-17T04:13:47.580Z,13.13
2022-12-17T04:16:33.158Z,13.70
2022-12-17T04:19:18.591Z,13.27
2022-12-17T04:22:03.939Z,14.13
2022-12-17T04:24:49.884Z,13.63
2022-12-17T04:27:35.443Z,12.68
2022-12-17T04:30:22.302Z,12.40
2022-12-17T04:33:07.648Z,13.27
2022-12-17T04:35:53.185Z,11.75
2022-12-17T04:38:38.610Z,11.90
2022-12-17T04:41:24.161Z,11.73
2022-12-17T04:44:09.583Z,13.07
2022-12-17T04:46:55.192Z,12.07
2022-12-17T04:49:40.958Z,11.67
2022-12-17T04:52:26.339Z,9.43
2022-12-17T04:55:12.193Z,9.90
2022-12-17T04:57:57.644Z,9.33
2022-12-17T05:00:43.300Z,10.43
2022-12-17T05:03:31.555Z,9.47
2022-12-17T05:06:17.376Z,10.20
2022-12-17T05:09:03.196Z,8.67
2022-12-17T05:11:48.732Z,9.83
2022-12-17T05:14:34.565Z,10.63
2022-12-17T05:17:20.044Z,10.70
2022-12-17T05:20:05.796Z,10.83
2022-12-17T05:22:51.371Z,15.40
2022-12-17T05:25:36.659Z,12.45
2022-12-17T05:28:22.658Z,11.20
2022-12-17T05:31:12.212Z,12.63
2022-12-17T05:33:57.874Z,12.23
2022-12-17T05:36:43.615Z,11.73
2022-12-17T05:39:29.563Z,12.23
2022-12-17T05:42:15.010Z,11.50
2022-12-17T05:45:00.812Z,12.88
2022-12-17T05:47:46.381Z,13.27
2022-12-17T05:50:33.066Z,14.05
2022-12-17T05:53:23.064Z,13.13
2022-12-17T05:56:09.913Z,14.32
2022-12-17T05:58:56.927Z,17.63
2022-12-17T06:01:42.574Z,15.43
2022-12-17T06:04:29.027Z,16.43
2022-12-17T06:07:14.434Z,18.43
2022-12-17T06:10:00.205Z,16.53
2022-12-17T06:12:45.656Z,16.50
2022-12-17T06:15:31.004Z,17.37
2022-12-17T06:18:17.079Z,16.40
2022-12-17T06:21:02.859Z,15.87
2022-12-17T06:23:48.489Z,17.63
2022-12-17T06:26:33.817Z,15.20
2022-12-17T06:29:19.070Z,15.05
2022-12-17T06:32:04.283Z,14.30
2022-12-17T06:34:54.598Z,15.43
2022-12-17T06:37:39.900Z,15.02
2022-12-17T06:40:25.510Z,15.82
2022-12-17T06:43:12.316Z,17.55
2022-12-17T06:45:58.143Z,18.10
2022-12-17T06:48:43.706Z,19.15
2022-12-17T06:51:29.064Z,20.70
2022-12-17T06:54:14.714Z,18.90
2022-12-17T06:57:00.349Z,18.38
2022-12-17T06:59:47.350Z,18.37
2022-12-17T07:02:33.106Z,18.23
2022-12-17T07:05:18.917Z,18.00
2022-12-17T07:08:04.631Z,19.07
2022-12-17T07:10:50.090Z,16.67
2022-12-17T07:13:35.743Z,19.50
2022-12-17T07:16:21.790Z,16.80
2022-12-17T07:19:08.957Z,18.73
2022-12-17T07:21:54.600Z,17.90
2022-12-17T07:24:40.906Z,19.00
2022-12-17T07:27:26.477Z,16.90
2022-12-17T07:30:11.918Z,19.90
2022-12-17T07:32:57.637Z,16.80
2022-12-17T07:35:43.390Z,19.37
2022-12-17T07:38:29.265Z,17.02
2022-12-17T07:41:14.888Z,17.33
2022-12-17T07:44:00.464Z,20.50
2022-12-17T07:46:46.123Z,18.83
2022-12-17T07:49:31.694Z,17.10
2022-12-17T07:52:17.983Z,17.63
2022-12-17T07:55:03.344Z,18.27
2022-12-17T07:57:48.966Z,18.37
2022-12-17T08:00:34.357Z,18.70
2022-12-17T08:03:20.559Z,20.37
2022-12-17T08:06:18.113Z,22.03
2022-12-17T08:09:04.794Z,22.93
2022-12-17T08:11:50.411Z,18.63
2022-12-17T08:14:35.625Z,24.27
2022-12-17T08:17:22.011Z,22.13
2022-12-17T08:20:07.483Z,22.03
2022-12-17T08:22:53.105Z,26.90
2022-12-17T08:25:38.465Z,22.67
2022-12-17T08:28:49.625Z,23.07
2022-12-17T08:31:29.452Z,22.97
2022-12-17T08:34:14.764Z,21.67
2022-12-17T08:37:00.465Z,20.93
2022-12-17T08:39:46.099Z,24.27
2022-12-17T08:42:31.468Z,21.13
2022-12-17T08:45:16.789Z,19.13
2022-12-17T08:48:04.264Z,17.60
2022-12-17T08:50:49.971Z,18.93
2022-12-17T08:53:35.521Z,18.57
2022-12-17T08:56:21.663Z,18.67
2022-12-17T08:59:07.314Z,18.30
2022-12-17T09:01:53.156Z,16.83
2022-12-17T09:04:38.736Z,18.33
2022-12-17T09:07:24.171Z,18.10
2022-12-17T09:10:11.014Z,18.40
2022-12-17T09:13:01.175Z,18.23
2022-12-17T09:15:51.611Z,19.37
2022-12-17T09:18:58.325Z,19.53
2022-12-17T09:21:48.922Z,18.00
2022-12-17T09:24:34.703Z,17.00
2022-12-17T09:27:20.082Z,18.27
2022-12-17T09:30:05.771Z,18.90
2022-12-17T09:32:51.550Z,20.30
2022-12-17T09:35:39.045Z,21.23
2022-12-17T09:38:24.522Z,18.90
2022-12-17T09:41:10.622Z,19.30
2022-12-17T09:43:56.189Z,18.50
2022-12-17T09:46:53.954Z,19.87
2022-12-17T09:49:42.762Z,19.07
2022-12-17T09:52:44.847Z,18.47
2022-12-17T09:55:51.073Z,19.27
2022-12-17T09:58:42.147Z,21.37
2022-12-17T10:01:54.879Z,21.53
2022-12-17T10:05:03.815Z,20.50
2022-12-17T10:07:54.855Z,19.63
2022-12-17T10:10:46.051Z,19.80
2022-12-17T10:13:35.137Z,21.93
2022-12-17T10:16:34.884Z,26.40
2022-12-17T10:19:20.242Z,23.80
2022-12-17T10:22:06.013Z,23.33
2022-12-17T10:25:01.830Z,21.87
2022-12-17T10:27:47.787Z,20.93
2022-12-17T10:30:35.504Z,20.77
2022-12-17T10:33:26.101Z,20.73
2022-12-17T10:36:11.562Z,21.67
2022-12-17T10:38:57.139Z,23.40
2022-12-17T10:41:48.105Z,22.10
2022-12-17T10:44:42.646Z,22.97
2022-12-17T10:47:45.219Z,22.27
2022-12-17T10:50:39.965Z,21.00
2022-12-17T10:53:38.259Z,21.47
2022-12-17T10:56:24.825Z,20.40
2022-12-17T10:59:13.019Z,21.00
2022-12-17T11:02:00.493Z,19.97
2022-12-17T11:04:54.513Z,18.10
2022-12-17T11:07:57.145Z,18.27
2022-12-17T11:10:46.963Z,17.50
2022-12-17T11:13:53.227Z,19.37
2022-12-17T11:16:45.946Z,17.77
2022-12-17T11:19:31.325Z,16.90
2022-12-17T11:22:24.354Z,16.83
2022-12-17T11:25:25.656Z,16.67
2022-12-17T11:28:21.974Z,17.63
2022-12-17T11:31:23.722Z,16.67
2022-12-17T11:34:17.404Z,15.63
2022-12-17T11:37:28.811Z,16.17
2022-12-17T11:40:39.315Z,15.40
2022-12-17T11:43:31.563Z,15.80
2022-12-17T11:46:36.318Z,16.20
2022-12-17T11:49:41.472Z,16.37
2022-12-17T11:52:33.221Z,16.73
2022-12-17T11:55:39.462Z,17.17
2022-12-17T11:58:54.741Z,14.83
2022-12-17T12:01:50.375Z,14.83
2022-12-17T12:04:44.810Z,14.37
2022-12-17T12:07:40.734Z,13.90
2022-12-17T12:10:44.340Z,15.30
2022-12-17T12:14:07.729Z,14.90
2022-12-17T12:17:10.492Z,15.57
2022-12-17T12:20:22.486Z,16.00
2022-12-17T12:23:48.941Z,14.13
2022-12-17T12:26:56.614Z,15.43
2022-12-17T12:30:18.591Z,15.10
2022-12-17T12:33:12.437Z,18.83
2022-12-17T12:35:59.223Z,18.40
2022-12-17T12:38:55.370Z,14.93
2022-12-17T12:42:11.633Z,14.00
2022-12-17T12:45:21.410Z,15.17
2022-12-17T12:48:21.527Z,13.80
2022-12-17T12:51:06.886Z,13.43
2022-12-17T12:53:52.549Z,14.10
2022-12-17T12:56:53.036Z,13.63
2022-12-17T13:00:05.575Z,13.90
2022-12-17T13:02:51.833Z,14.00
2022-12-17T13:05:34.825Z,13.37
2022-12-17T13:08:07.643Z,13.07
2022-12-17T13:10:36.170Z,13.30
2022-12-17T13:13:17.846Z,13.87
2022-12-17T13:15:48.997Z,13.83
2022-12-17T13:18:36.758Z,14.20
2022-12-17T13:21:25.945Z,14.47
2022-12-17T13:23:53.625Z,13.93
2022-12-17T13:26:42.432Z,14.83
2022-12-17T13:29:24.352Z,13.30
2022-12-17T13:32:29.000Z,13.57
2022-12-17T13:35:24.640Z,13.20
2022-12-17T13:38:32.905Z,13.73
2022-12-17T13:41:14.929Z,14.00
2022-12-17T13:43:50.422Z,14.00
2022-12-17T13:46:23.510Z,15.27
2022-12-17T13:48:56.433Z,16.33
2022-12-17T13:51:24.583Z,14.43
2022-12-17T13:54:02.305Z,14.60
2022-12-17T13:56:33.277Z,13.77
2022-12-17T13:59:09.085Z,13.27
2022-12-17T14:01:49.446Z,13.63
2022-12-17T14:04:27.946Z,13.97
2022-12-17T14:06:58.246Z,13.80
2022-12-17T14:09:35.010Z,13.63
2022-12-17T14:12:23.923Z,13.67
2022-12-17T14:14:57.494Z,14.13
2022-12-17T14:17:29.793Z,13.87
2022-12-17T14:20:05.162Z,13.53
2022-12-17T14:22:38.489Z,14.80
2022-12-17T14:25:13.624Z,14.00
2022-12-17T14:27:48.894Z,13.33
2022-12-17T14:30:29.171Z,13.00
2022-12-17T14:32:56.122Z,12.50
2022-12-17T14:35:27.490Z,12.73
2022-12-17T14:37:54.627Z,12.73
2022-12-17T14:40:22.555Z,13.90
2022-12-17T14:42:50.359Z,12.13
2022-12-17T14:45:17.127Z,12.50
2022-12-17T14:48:01.266Z,11.57
2022-12-17T14:50:34.530Z,12.50
2022-12-17T14:53:04.395Z,12.37
2022-12-17T14:55:34.346Z,12.40
2022-12-17T14:58:15.087Z,11.30
2022-12-17T15:00:43.972Z,13.82
2022-12-17T15:03:26.545Z,12.10
2022-12-17T15:06:01.005Z,12.30
2022-12-17T15:08:31.861Z,12.23
2022-12-17T15:11:01.919Z,14.10
2022-12-17T15:13:28.735Z,12.93
2022-12-17T15:15:55.493Z,12.50
2022-12-17T15:18:24.678Z,13.93
2022-12-17T15:20:53.092Z,14.63
2022-12-17T15:23:22.420Z,13.40
2022-12-17T15:25:51.051Z,12.37
2022-12-17T15:28:19.299Z,15.60
2022-12-17T15:30:47.156Z,13.00
2022-12-17T15:33:14.312Z,14.20
2022-12-17T15:35:41.877Z,15.03
2022-12-17T15:38:11.654Z,14.47
2022-12-17T15:40:39.849Z,14.23
2022-12-17T15:43:11.560Z,15.43
2022-12-17T15:45:49.907Z,15.60
2022-12-17T15:48:22.056Z,17.73
2022-12-17T15:50:49.662Z,15.10
2022-12-17T15:53:16.758Z,14.73
2022-12-17T15:55:43.735Z,13.80
2022-12-17T15:58:11.600Z,14.50
2022-12-17T16:00:39.097Z,15.07
2022-12-17T16:03:06.133Z,14.70
2022-12-17T16:05:33.037Z,13.00
2022-12-17T16:08:02.373Z,13.13
2022-12-17T16:10:29.961Z,13.77
2022-12-17T16:12:57.703Z,14.73
2022-12-17T16:15:24.839Z,13.33
2022-12-17T16:17:51.665Z,13.37
2022-12-17T16:20:19.832Z,13.40
2022-12-17T16:22:46.689Z,14.00
2022-12-17T16:25:13.824Z,13.33
2022-12-17T16:27:42.238Z,12.77
2022-12-17T16:30:11.162Z,13.80
2022-12-17T16:32:38.547Z,12.47
2022-12-17T16:35:06.074Z,15.50
2022-12-17T16:37:32.916Z,15.10
2022-12-17T16:40:00.383Z,14.03
2022-12-17T16:42:28.419Z,14.27
2022-12-17T16:44:55.332Z,12.00
2022-12-17T16:47:22.299Z,14.53
2022-12-17T16:49:52.183Z,13.87
2022-12-17T16:52:23.576Z,13.53
2022-12-17T16:54:50.485Z,13.97
2022-12-17T16:57:17.320Z,12.37
2022-12-17T16:59:44.153Z,12.43
2022-12-17T17:02:15.608Z,12.93
2022-12-17T17:04:42.563Z,14.27
2022-12-17T17:07:09.349Z,14.43
2022-12-17T17:09:38.280Z,14.73
2022-12-17T17:12:05.510Z,14.57
2022-12-17T17:14:33.304Z,13.43
2022-12-17T17:17:00.093Z,14.50
2022-12-17T17:19:26.929Z,14.83
2022-12-17T17:21:54.904Z,13.33
2022-12-17T17:24:25.253Z,14.40
2022-12-17T17:26:53.134Z,14.57
2022-12-17T17:29:20.075Z,14.53
2022-12-17T17:34:34.080Z,16.17
2022-12-17T17:37:03.887Z,17.43
2022-12-17T17:39:33.264Z,16.07
2022-12-17T17:42:00.716Z,15.67
2022-12-17T17:44:27.558Z,14.87
2022-12-17T17:46:54.441Z,14.80
2022-12-17T17:49:22.265Z,15.20
2022-12-17T17:52:08.825Z,16.93
2022-12-17T17:54:38.197Z,16.63
2022-12-17T17:57:05.405Z,17.60
2022-12-17T17:59:34.053Z,17.37
2022-12-17T18:02:02.366Z,18.83
2022-12-17T18:04:29.724Z,17.20
2022-12-17T18:09:43.749Z,16.40
2022-12-17T18:12:29.318Z,16.43
2022-12-17T18:17:44.627Z,16.57
2022-12-17T18:20:12.551Z,15.10
2022-12-17T18:22:39.950Z,18.53
2022-12-17T18:25:06.947Z,17.97
2022-12-17T18:27:33.791Z,18.80
2022-12-17T18:30:00.753Z,19.40
2022-12-17T18:32:27.705Z,20.33
2022-12-17T18:34:54.797Z,19.20
2022-12-17T18:37:21.671Z,18.20
2022-12-17T18:39:50.452Z,17.43
2022-12-17T18:42:35.876Z,15.33
2022-12-17T18:45:02.900Z,15.50
2022-12-17T18:47:30.018Z,16.37
2022-12-17T18:49:57.370Z,19.07
2022-12-17T18:52:24.828Z,21.03
2022-12-17T18:54:51.722Z,21.77
2022-12-17T18:57:18.546Z,23.83
2022-12-17T18:59:45.489Z,25.27
2022-12-17T19:02:13.757Z,21.33
2022-12-17T19:04:41.327Z,21.83
2022-12-17T19:07:08.129Z,19.30
2022-12-17T19:09:35.983Z,18.40
2022-12-17T19:12:07.829Z,17.83
2022-12-17T19:14:35.216Z,18.80
2022-12-17T19:17:02.491Z,18.65
2022-12-17T19:19:29.578Z,18.73
2022-12-17T19:21:58.776Z,22.60
2022-12-17T19:24:25.719Z,22.33
2022-12-17T19:26:52.720Z,21.17
2022-12-17T19:29:20.973Z,20.83
2022-12-17T19:31:48.760Z,21.33
2022-12-17T19:34:17.186Z,21.60
2022-12-17T19:36:44.902Z,21.67
2022-12-17T19:39:17.101Z,22.80
2022-12-17T19:41:44.916Z,22.17
2022-12-17T19:44:13.860Z,23.60
2022-12-17T19:46:41.918Z,25.30
2022-12-17T19:49:11.813Z,24.23
2022-12-17T19:51:43.950Z,23.50
2022-12-17T19:54:12.994Z,21.67
2022-12-17T19:56:39.857Z,21.65
2022-12-17T19:59:10.075Z,22.27
2022-12-17T20:01:42.612Z,22.58
2022-12-17T20:04:13.730Z,22.45
2022-12-17T20:06:41.864Z,22.60
2022-12-17T20:09:08.777Z,22.33
2022-12-17T20:11:36.452Z,22.83
2022-12-17T20:14:20.766Z,22.73
2022-12-17T20:16:59.618Z,23.33
2022-12-17T20:19:31.765Z,23.27
2022-12-17T20:22:00.133Z,24.73
2022-12-17T20:24:31.105Z,25.03
2022-12-17T20:26:59.772Z,24.87
2022-12-17T20:29:27.388Z,22.63
2022-12-17T20:31:55.905Z,22.13
2022-12-17T20:34:27.178Z,20.47
2022-12-17T20:36:54.587Z,21.27
2022-12-17T20:39:26.536Z,22.10
2022-12-17T20:41:55.148Z,21.53
2022-12-17T20:44:21.997Z,20.10
2022-12-17T20:46:48.946Z,19.57
2022-12-17T20:49:15.844Z,20.67
2022-12-17T20:51:42.675Z,18.27
2022-12-17T20:54:10.575Z,18.50
2022-12-17T20:56:39.230Z,18.80
2022-12-17T20:59:08.764Z,18.20
2022-12-17T21:01:36.670Z,17.67
2022-12-17T21:04:04.340Z,16.27
2022-12-17T21:06:36.459Z,17.40
2022-12-17T21:09:04.013Z,16.40
2022-12-17T21:11:32.851Z,18.30
2022-12-17T21:14:03.832Z,17.43
2022-12-17T21:16:38.267Z,19.20
2022-12-17T21:19:06.557Z,18.42
2022-12-17T21:21:36.685Z,19.20
2022-12-17T21:24:04.720Z,23.57
2022-12-17T21:26:33.673Z,23.33
2022-12-17T21:29:02.564Z,22.87
2022-12-17T21:31:35.525Z,24.73
2022-12-17T21:34:04.871Z,24.67
2022-12-17T21:36:33.557Z,21.17
2022-12-17T21:39:01.338Z,17.70
2022-12-17T21:41:32.604Z,16.77
2022-12-17T21:44:02.094Z,20.60
2022-12-17T21:46:30.072Z,17.47
2022-12-17T21:48:58.890Z,19.50
2022-12-17T21:51:26.763Z,18.63
2022-12-17T21:53:56.079Z,20.08
2022-12-17T21:56:24.089Z,18.98
2022-12-17T21:58:55.690Z,21.77
2022-12-17T22:01:25.411Z,21.90
2022-12-17T22:03:54.554Z,21.27
2022-12-17T22:06:26.545Z,19.70
2022-12-17T22:08:59.909Z,20.55
2022-12-17T22:11:30.621Z,21.80
2022-12-17T22:14:13.813Z,20.40
2022-12-17T22:16:47.285Z,21.77
2022-12-17T22:19:22.134Z,22.85
2022-12-17T22:21:50.564Z,22.60
2022-12-17T22:24:19.637Z,22.20
2022-12-17T22:26:46.978Z,22.40
2022-12-17T22:29:38.005Z,23.90
2022-12-17T22:32:29.118Z,23.02
2022-12-17T22:36:06.889Z,23.50
2022-12-17T22:41:44.057Z,22.35
2022-12-17T22:44:34.587Z,22.38
2022-12-17T22:44:35.709Z,26.67
2022-12-17T22:46:17.280Z,24.60
2022-12-17T22:48:44.357Z,23.30
2022-12-17T22:51:16.385Z,23.92
2022-12-17T22:53:53.506Z,25.07
2022-12-17T22:56:42.699Z,24.90
2022-12-17T22:59:08.628Z,26.43
2022-12-17T23:01:36.555Z,24.93
2022-12-17T23:04:03.998Z,25.27
2022-12-17T23:06:30.952Z,26.00
2022-12-17T23:08:59.053Z,25.65
2022-12-17T23:11:29.021Z,25.50
2022-12-17T23:13:56.344Z,24.58
2022-12-17T23:16:24.177Z,24.27
2022-12-17T23:18:51.703Z,24.50
2022-12-17T23:21:23.878Z,24.25
2022-12-17T23:23:52.884Z,23.52
2022-12-17T23:26:25.281Z,23.65
2022-12-17T23:28:58.556Z,22.33
2022-12-17T23:31:27.986Z,25.60
2022-12-17T23:33:54.954Z,23.60
2022-12-17T23:36:24.109Z,22.20
2022-12-17T23:38:52.019Z,22.15
2022-12-17T23:41:21.447Z,20.98
2022-12-17T23:43:49.475Z,21.33
2022-12-17T23:46:17.949Z,21.77
2022-12-17T23:48:46.575Z,22.90
2022-12-17T23:51:15.584Z,20.60
2022-12-17T23:53:43.615Z,19.90
2022-12-17T23:56:14.053Z,20.00
2022-12-17T23:58:42.521Z,20.30
